createdAt,value
2023-03-10T00:00:04.882Z,58.71
2023-03-10T00:01:04.206Z,58.71
2023-03-10T00:02:05.114Z,58.61
2023-03-10T00:03:04.169Z,58.71
2023-03-10T00:04:04.271Z,58.61
2023-03-10T00:05:04.122Z,58.61
2023-03-10T00:06:04.250Z,58.61
2023-03-10T00:07:04.134Z,58.71
2023-03-10T00:08:04.129Z,58.71
2023-03-10T00:09:04.109Z,58.74
2023-03-10T00:10:04.081Z,58.74
2023-03-10T00:11:04.118Z,58.71
2023-03-10T00:12:04.072Z,58.71
2023-03-10T00:13:04.077Z,58.74
2023-03-10T00:14:04.056Z,58.74
2023-03-10T00:15:04.089Z,58.74
2023-03-10T00:16:04.111Z,58.74
2023-03-10T00:17:04.030Z,58.74
2023-03-10T00:18:04.018Z,58.84
2023-03-10T00:19:03.980Z,58.84
2023-03-10T00:20:03.978Z,58.84
2023-03-10T00:21:03.969Z,58.74
2023-03-10T00:22:03.951Z,58.74
2023-03-10T00:23:03.955Z,58.74
2023-03-10T00:24:03.926Z,58.74
2023-03-10T00:25:03.991Z,58.74
2023-03-10T00:26:03.922Z,58.74
2023-03-10T00:27:03.887Z,58.84
2023-03-10T00:28:03.893Z,58.84
2023-03-10T00:29:03.940Z,58.74
2023-03-10T00:30:03.876Z,58.74
2023-03-10T00:31:03.872Z,58.74
2023-03-10T00:32:03.871Z,58.74
2023-03-10T00:33:03.825Z,58.74
2023-03-10T00:34:03.834Z,58.74
2023-03-10T00:35:03.834Z,58.74
2023-03-10T00:36:03.832Z,58.74
2023-03-10T00:37:03.785Z,58.74
2023-03-10T00:38:03.813Z,58.74
2023-03-10T00:39:03.778Z,58.74
2023-03-10T00:40:03.761Z,58.84
2023-03-10T00:41:03.750Z,58.74
2023-03-10T00:42:03.749Z,58.74
2023-03-10T00:43:04.384Z,58.74
2023-03-10T00:44:03.765Z,58.84
2023-03-10T00:45:03.693Z,58.84
2023-03-10T00:46:03.795Z,58.84
2023-03-10T00:47:03.759Z,58.74
2023-03-10T00:48:03.740Z,58.74
2023-03-10T00:49:03.655Z,58.74
2023-03-10T00:50:03.646Z,58.74
2023-03-10T00:51:03.646Z,58.84
2023-03-10T00:52:03.612Z,58.74
2023-03-10T00:53:03.640Z,58.74
2023-03-10T00:54:03.616Z,58.71
2023-03-10T00:55:03.728Z,58.74
2023-03-10T00:56:03.594Z,58.74
2023-03-10T00:57:03.624Z,58.71
2023-03-10T00:58:03.602Z,58.71
2023-03-10T00:59:03.532Z,58.61
2023-03-10T01:00:03.545Z,58.61
2023-03-10T01:01:03.552Z,58.61
2023-03-10T01:02:03.643Z,58.61
2023-03-10T01:03:03.526Z,58.61
2023-03-10T01:04:03.558Z,58.61
2023-03-10T01:05:03.480Z,58.61
2023-03-10T01:06:03.476Z,58.61
2023-03-10T01:07:03.473Z,58.51
2023-03-10T01:08:03.503Z,58.61
2023-03-10T01:09:03.468Z,58.61
2023-03-10T01:10:03.434Z,58.61
2023-03-10T01:11:03.414Z,58.61
2023-03-10T01:12:03.424Z,58.61
2023-03-10T01:13:03.403Z,58.61
2023-03-10T01:14:03.411Z,58.61
2023-03-10T01:15:03.424Z,58.61
2023-03-10T01:16:03.420Z,58.71
2023-03-10T01:17:03.366Z,58.61
2023-03-10T01:18:03.341Z,58.64
2023-03-10T01:19:03.323Z,58.71
2023-03-10T01:20:03.318Z,58.64
2023-03-10T01:21:03.333Z,58.74
2023-03-10T01:22:03.297Z,58.74
2023-03-10T01:23:03.337Z,58.74
2023-03-10T01:24:03.258Z,58.74
2023-03-10T01:25:03.275Z,58.74
2023-03-10T01:26:03.272Z,58.74
2023-03-10T01:27:03.247Z,58.74
2023-03-10T01:28:03.245Z,58.74
2023-03-10T01:29:03.231Z,58.74
2023-03-10T01:30:03.241Z,58.74
2023-03-10T01:31:03.239Z,58.74
2023-03-10T01:32:03.202Z,58.74
2023-03-10T01:33:03.192Z,58.74
2023-03-10T01:34:03.160Z,58.74
2023-03-10T01:35:03.188Z,58.74
2023-03-10T01:36:03.225Z,58.74
2023-03-10T01:37:03.146Z,58.74
2023-03-10T01:38:03.107Z,58.74
2023-03-10T01:39:03.111Z,58.74
2023-03-10T01:40:03.085Z,58.74
2023-03-10T01:41:03.136Z,58.74
2023-03-10T01:42:03.123Z,58.74
2023-03-10T01:43:03.064Z,58.74
2023-03-10T01:44:03.032Z,58.74
2023-03-10T01:45:03.032Z,58.74
2023-03-10T01:46:03.027Z,58.74
2023-03-10T01:47:03.062Z,58.74
2023-03-10T01:48:03.009Z,58.74
2023-03-10T01:49:03.010Z,58.74
2023-03-10T01:50:02.967Z,58.74
2023-03-10T01:51:02.976Z,58.74
2023-03-10T01:52:02.988Z,58.74
2023-03-10T01:53:02.947Z,58.74
2023-03-10T01:54:02.932Z,58.74
2023-03-10T01:55:02.924Z,58.74
2023-03-10T01:56:02.920Z,58.74
2023-03-10T01:57:02.946Z,58.74
2023-03-10T01:58:02.907Z,58.74
2023-03-10T01:59:02.925Z,58.74
2023-03-10T02:00:02.932Z,58.74
2023-03-10T02:01:02.948Z,58.74
2023-03-10T02:02:02.910Z,58.74
2023-03-10T02:03:02.855Z,58.74
2023-03-10T02:04:03.051Z,58.74
2023-03-10T02:05:02.828Z,58.74
2023-03-10T02:06:02.830Z,58.74
2023-03-10T02:07:02.822Z,58.64
2023-03-10T02:08:02.824Z,58.74
2023-03-10T02:09:02.791Z,58.74
2023-03-10T02:10:02.798Z,58.71
2023-03-10T02:11:02.748Z,58.74
2023-03-10T02:12:02.813Z,58.71
2023-03-10T02:13:02.787Z,58.61
2023-03-10T02:14:02.725Z,58.61
2023-03-10T02:15:02.728Z,58.61
2023-03-10T02:16:02.751Z,58.61
2023-03-10T02:17:02.718Z,58.61
2023-03-10T02:18:02.790Z,58.61
2023-03-10T02:19:02.712Z,58.61
2023-03-10T02:20:02.672Z,58.61
2023-03-10T02:21:02.644Z,58.61
2023-03-10T02:22:02.652Z,58.61
2023-03-10T02:23:02.623Z,58.61
2023-03-10T02:24:02.631Z,58.61
2023-03-10T02:25:02.600Z,58.61
2023-03-10T02:26:02.631Z,58.61
2023-03-10T02:27:02.584Z,58.61
2023-03-10T02:28:02.595Z,58.61
2023-03-10T02:29:02.616Z,58.61
2023-03-10T02:30:02.576Z,58.61
2023-03-10T02:31:02.568Z,58.61
2023-03-10T02:32:02.597Z,58.61
2023-03-10T02:33:02.549Z,58.61
2023-03-10T02:34:02.502Z,58.61
2023-03-10T02:35:02.507Z,58.64
2023-03-10T02:36:02.560Z,58.64
2023-03-10T02:37:02.517Z,58.64
2023-03-10T02:38:02.462Z,58.74
2023-03-10T02:39:02.471Z,58.74
2023-03-10T02:40:02.452Z,58.74
2023-03-10T02:41:02.507Z,58.74
2023-03-10T02:42:02.421Z,58.74
2023-03-10T02:43:02.446Z,58.74
2023-03-10T02:44:02.420Z,58.74
2023-03-10T02:45:02.393Z,58.74
2023-03-10T02:46:02.424Z,58.74
2023-03-10T02:47:02.360Z,58.74
2023-03-10T02:48:02.379Z,58.84
2023-03-10T02:49:02.365Z,58.74
2023-03-10T02:50:02.350Z,58.74
2023-03-10T02:51:02.350Z,58.74
2023-03-10T02:52:02.324Z,58.74
2023-03-10T02:53:02.558Z,58.74
2023-03-10T02:54:02.303Z,58.74
2023-03-10T02:55:02.305Z,58.74
2023-03-10T02:56:02.272Z,58.74
2023-03-10T02:57:02.262Z,58.74
2023-03-10T02:58:02.278Z,58.74
2023-03-10T02:59:02.283Z,58.74
2023-03-10T03:00:02.229Z,58.74
2023-03-10T03:01:02.265Z,58.74
2023-03-10T03:02:02.246Z,58.74
2023-03-10T03:03:02.210Z,58.74
2023-03-10T03:04:02.263Z,58.74
2023-03-10T03:05:02.674Z,58.74
2023-03-10T03:06:02.179Z,58.74
2023-03-10T03:07:02.161Z,58.74
2023-03-10T03:08:02.196Z,58.74
2023-03-10T03:09:02.141Z,58.74
2023-03-10T03:10:02.185Z,58.74
2023-03-10T03:11:02.178Z,58.74
2023-03-10T03:12:02.142Z,58.74
2023-03-10T03:13:02.142Z,58.74
2023-03-10T03:14:02.170Z,58.74
2023-03-10T03:15:02.077Z,58.64
2023-03-10T03:16:02.090Z,58.74
2023-03-10T03:17:02.147Z,58.74
2023-03-10T03:18:02.783Z,58.74
2023-03-10T03:19:02.008Z,58.74
2023-03-10T03:20:02.012Z,58.74
2023-03-10T03:21:02.027Z,58.64
2023-03-10T03:22:02.003Z,58.64
2023-03-10T03:23:01.956Z,58.64
2023-03-10T03:24:01.961Z,58.74
2023-03-10T03:25:01.972Z,58.74
2023-03-10T03:26:01.958Z,58.64
2023-03-10T03:27:01.929Z,58.64
2023-03-10T03:28:01.911Z,58.61
2023-03-10T03:29:01.916Z,58.61
2023-03-10T03:30:01.904Z,58.61
2023-03-10T03:31:01.905Z,58.51
2023-03-10T03:32:02.026Z,58.51
2023-03-10T03:33:02.519Z,58.51
2023-03-10T03:34:01.853Z,58.51
2023-03-10T03:35:01.864Z,58.51
2023-03-10T03:36:01.952Z,58.51
2023-03-10T03:37:01.827Z,58.51
2023-03-10T03:38:01.791Z,58.51
2023-03-10T03:39:01.851Z,58.51
2023-03-10T03:40:01.819Z,58.51
2023-03-10T03:41:01.806Z,58.51
2023-03-10T03:42:01.773Z,58.51
2023-03-10T03:43:01.775Z,58.51
2023-03-10T03:44:01.760Z,58.51
2023-03-10T03:45:01.733Z,58.51
2023-03-10T03:46:01.773Z,58.51
2023-03-10T03:47:01.721Z,58.54
2023-03-10T03:48:01.704Z,58.64
2023-03-10T03:49:01.706Z,58.64
2023-03-10T03:50:01.661Z,58.64
2023-03-10T03:51:01.676Z,58.64
2023-03-10T03:52:01.648Z,58.64
2023-03-10T03:53:01.643Z,58.64
2023-03-10T03:54:01.732Z,58.64
2023-03-10T03:55:01.643Z,58.64
2023-03-10T03:56:01.603Z,58.64
2023-03-10T03:57:01.603Z,58.74
2023-03-10T03:58:01.581Z,58.74
2023-03-10T03:59:01.573Z,58.74
2023-03-10T04:00:02.528Z,58.74
2023-03-10T04:01:01.539Z,58.74
2023-03-10T04:02:01.608Z,58.74
2023-03-10T04:03:01.542Z,58.74
2023-03-10T04:04:01.603Z,58.74
2023-03-10T04:05:01.499Z,58.74
2023-03-10T04:06:01.509Z,58.74
2023-03-10T04:07:01.481Z,58.74
2023-03-10T04:08:01.499Z,58.64
2023-03-10T04:09:01.590Z,58.74
2023-03-10T04:10:01.455Z,58.64
2023-03-10T04:11:01.518Z,58.64
2023-03-10T04:12:01.428Z,58.74
2023-03-10T04:13:01.525Z,58.64
2023-03-10T04:14:01.432Z,58.74
2023-03-10T04:15:01.420Z,58.74
2023-03-10T04:16:01.420Z,58.74
2023-03-10T04:17:01.415Z,58.64
2023-03-10T04:18:01.385Z,58.74
2023-03-10T04:19:01.351Z,58.74
2023-03-10T04:20:08.638Z,58.74
2023-03-10T04:21:02.341Z,58.74
2023-03-10T04:22:01.318Z,58.74
2023-03-10T04:23:01.307Z,58.74
2023-03-10T04:24:01.341Z,58.74
2023-03-10T04:25:01.281Z,58.74
2023-03-10T04:26:01.291Z,58.74
2023-03-10T04:27:01.283Z,58.74
2023-03-10T04:28:01.271Z,58.74
2023-03-10T04:29:01.268Z,58.74
2023-03-10T04:30:01.228Z,58.74
2023-03-10T04:31:01.247Z,58.74
2023-03-10T04:32:05.580Z,58.74
2023-03-10T04:33:01.260Z,58.74
2023-03-10T04:34:01.200Z,58.74
2023-03-10T04:35:01.205Z,58.74
2023-03-10T04:36:01.218Z,58.74
2023-03-10T04:37:01.173Z,58.74
2023-03-10T04:38:01.147Z,58.74
2023-03-10T04:39:01.139Z,58.74
2023-03-10T04:40:01.143Z,58.74
2023-03-10T04:41:01.122Z,58.74
2023-03-10T04:42:01.114Z,58.74
2023-03-10T04:43:01.106Z,58.74
2023-03-10T04:44:01.098Z,58.74
2023-03-10T04:45:01.064Z,58.74
2023-03-10T04:46:01.137Z,58.74
2023-03-10T04:47:01.037Z,58.74
2023-03-10T04:48:01.038Z,58.74
2023-03-10T04:49:01.028Z,58.74
2023-03-10T04:50:01.062Z,58.74
2023-03-10T04:51:01.018Z,58.74
2023-03-10T04:52:01.002Z,58.74
2023-03-10T04:53:00.996Z,58.74
2023-03-10T04:54:00.973Z,58.74
2023-03-10T04:55:00.959Z,58.74
2023-03-10T04:56:00.983Z,58.74
2023-03-10T04:57:00.956Z,58.74
2023-03-10T04:58:01.039Z,58.74
2023-03-10T04:59:00.919Z,58.74
2023-03-10T05:00:02.904Z,58.74
2023-03-10T05:01:03.576Z,58.74
2023-03-10T05:02:00.956Z,58.74
2023-03-10T05:03:00.878Z,58.74
2023-03-10T05:04:00.931Z,58.74
2023-03-10T05:05:00.860Z,58.74
2023-03-10T05:06:00.856Z,58.74
2023-03-10T05:07:00.837Z,58.74
2023-03-10T05:08:00.816Z,58.74
2023-03-10T05:09:00.875Z,58.74
2023-03-10T05:10:00.792Z,58.74
2023-03-10T05:11:00.878Z,58.74
2023-03-10T05:12:00.790Z,58.64
2023-03-10T05:13:00.771Z,58.64
2023-03-10T05:14:00.776Z,58.64
2023-03-10T05:15:00.813Z,58.64
2023-03-10T05:16:00.761Z,58.64
2023-03-10T05:17:00.859Z,58.54
2023-03-10T05:18:00.734Z,58.54
2023-03-10T05:19:00.690Z,58.54
2023-03-10T05:20:00.708Z,58.54
2023-03-10T05:21:00.663Z,58.54
2023-03-10T05:22:00.681Z,58.54
2023-03-10T05:23:00.653Z,58.64
2023-03-10T05:24:00.662Z,58.54
2023-03-10T05:25:00.619Z,58.54
2023-03-10T05:26:00.610Z,58.54
2023-03-10T05:27:00.692Z,58.54
2023-03-10T05:28:00.596Z,58.54
2023-03-10T05:29:00.581Z,58.54
2023-03-10T05:30:00.578Z,58.54
2023-03-10T05:31:00.606Z,58.54
2023-03-10T05:32:00.690Z,58.54
2023-03-10T05:33:00.535Z,58.54
2023-03-10T05:34:00.662Z,58.54
2023-03-10T05:35:00.520Z,58.54
2023-03-10T05:36:01.286Z,58.54
2023-03-10T05:37:00.498Z,58.54
2023-03-10T05:38:00.603Z,58.54
2023-03-10T05:39:00.500Z,58.64
2023-03-10T05:40:00.467Z,58.54
2023-03-10T05:41:00.460Z,58.64
2023-03-10T05:42:00.467Z,58.64
2023-03-10T05:43:00.427Z,58.64
2023-03-10T05:44:00.445Z,58.64
2023-03-10T05:45:00.406Z,58.64
2023-03-10T05:46:00.423Z,58.64
2023-03-10T05:47:00.527Z,58.64
2023-03-10T05:48:00.402Z,58.64
2023-03-10T05:49:00.377Z,58.64
2023-03-10T05:50:00.365Z,58.64
2023-03-10T05:51:00.370Z,58.64
2023-03-10T05:52:00.337Z,58.64
2023-03-10T05:53:00.317Z,58.64
2023-03-10T05:54:00.323Z,58.64
2023-03-10T05:55:00.307Z,58.64
2023-03-10T05:56:00.307Z,58.54
2023-03-10T05:57:00.381Z,58.64
2023-03-10T05:58:00.277Z,58.64
2023-03-10T05:59:00.275Z,58.64
2023-03-10T06:00:00.271Z,58.64
2023-03-10T06:01:00.242Z,58.74
2023-03-10T06:02:00.249Z,58.74
2023-03-10T06:03:00.265Z,58.74
2023-03-10T06:04:00.307Z,58.64
2023-03-10T06:05:00.211Z,58.74
2023-03-10T06:06:00.203Z,58.74
2023-03-10T06:07:00.167Z,58.74
2023-03-10T06:08:00.151Z,58.74
2023-03-10T06:09:00.153Z,58.74
2023-03-10T06:10:00.160Z,58.74
2023-03-10T06:11:00.143Z,58.74
2023-03-10T06:12:00.136Z,58.74
2023-03-10T06:13:00.110Z,58.74
2023-03-10T06:14:00.116Z,58.74
2023-03-10T06:15:00.127Z,58.74
2023-03-10T06:16:00.180Z,58.74
2023-03-10T06:17:00.059Z,58.74
2023-03-10T06:18:00.070Z,58.74
2023-03-10T06:19:00.073Z,58.74
2023-03-10T06:20:00.042Z,58.74
2023-03-10T06:21:00.138Z,58.74
2023-03-10T06:22:00.009Z,58.74
2023-03-10T06:22:59.987Z,58.74
2023-03-10T06:24:00.001Z,58.74
2023-03-10T06:24:59.984Z,58.74
2023-03-10T06:25:59.993Z,58.74
2023-03-10T06:26:59.964Z,58.74
2023-03-10T06:27:59.935Z,58.74
2023-03-10T06:28:59.953Z,58.74
2023-03-10T06:29:59.922Z,58.64
2023-03-10T06:30:59.921Z,58.74
2023-03-10T06:31:59.984Z,58.74
2023-03-10T06:32:59.986Z,58.74
2023-03-10T06:34:00.789Z,58.74
2023-03-10T06:34:59.859Z,58.74
2023-03-10T06:35:59.939Z,58.74
2023-03-10T06:36:59.849Z,58.74
2023-03-10T06:37:59.841Z,58.74
2023-03-10T06:38:59.821Z,58.74
2023-03-10T06:39:59.803Z,58.74
2023-03-10T06:40:59.815Z,58.74
2023-03-10T06:41:59.780Z,58.74
2023-03-10T06:42:59.802Z,58.74
2023-03-10T06:43:59.759Z,58.74
2023-03-10T06:44:59.774Z,58.74
2023-03-10T06:45:59.784Z,58.74
2023-03-10T06:46:59.791Z,58.74
2023-03-10T06:47:59.741Z,58.74
2023-03-10T06:48:59.725Z,58.74
2023-03-10T06:49:59.699Z,58.74
2023-03-10T06:50:59.702Z,58.84
2023-03-10T06:51:59.695Z,58.84
2023-03-10T06:52:59.662Z,58.84
2023-03-10T06:53:59.674Z,58.84
2023-03-10T06:54:59.662Z,58.84
2023-03-10T06:55:59.749Z,58.84
2023-03-10T06:56:59.621Z,58.84
2023-03-10T06:57:59.678Z,58.84
2023-03-10T06:58:59.606Z,58.84
2023-03-10T06:59:59.592Z,58.84
2023-03-10T07:00:59.599Z,58.84
2023-03-10T07:01:59.587Z,58.84
2023-03-10T07:02:59.571Z,58.84
2023-03-10T07:03:59.546Z,58.84
2023-03-10T07:04:59.635Z,58.84
2023-03-10T07:05:59.526Z,58.84
2023-03-10T07:06:59.504Z,58.74
2023-03-10T07:07:59.507Z,58.74
2023-03-10T07:08:59.512Z,58.74
2023-03-10T07:09:59.489Z,58.74
2023-03-10T07:10:59.490Z,58.74
2023-03-10T07:11:59.452Z,58.74
2023-03-10T07:12:59.443Z,58.74
2023-03-10T07:13:59.472Z,58.74
2023-03-10T07:14:59.451Z,58.74
2023-03-10T07:15:59.424Z,58.74
2023-03-10T07:16:59.515Z,58.74
2023-03-10T07:17:59.384Z,58.74
2023-03-10T07:18:59.401Z,58.74
2023-03-10T07:19:59.364Z,58.74
2023-03-10T07:20:59.359Z,58.74
2023-03-10T07:21:59.359Z,58.74
2023-03-10T07:22:59.336Z,58.74
2023-03-10T07:23:59.321Z,58.74
2023-03-10T07:24:59.330Z,58.74
2023-03-10T07:25:59.321Z,58.74
2023-03-10T07:26:59.330Z,58.64
2023-03-10T07:27:59.292Z,58.61
2023-03-10T07:28:59.543Z,58.64
2023-03-10T07:29:59.275Z,58.61
2023-03-10T07:30:59.359Z,58.61
2023-03-10T07:31:59.258Z,58.61
2023-03-10T07:32:59.232Z,58.64
2023-03-10T07:33:59.223Z,58.61
2023-03-10T07:34:59.234Z,58.71
2023-03-10T07:35:59.270Z,58.71
2023-03-10T07:36:59.188Z,58.61
2023-03-10T07:37:59.177Z,58.61
2023-03-10T07:38:59.174Z,58.61
2023-03-10T07:39:59.154Z,58.71
2023-03-10T07:41:01.862Z,58.74
2023-03-10T07:41:59.126Z,58.74
2023-03-10T07:42:59.168Z,58.74
2023-03-10T07:43:59.145Z,58.74
2023-03-10T07:44:59.095Z,58.74
2023-03-10T07:45:59.133Z,58.74
2023-03-10T07:46:59.084Z,58.74
2023-03-10T07:47:59.073Z,58.84
2023-03-10T07:48:59.266Z,58.84
2023-03-10T07:49:59.052Z,58.84
2023-03-10T07:50:59.050Z,58.84
2023-03-10T07:51:59.024Z,58.84
2023-03-10T07:52:59.024Z,58.84
2023-03-10T07:53:59.074Z,58.84
2023-03-10T07:54:59.002Z,58.84
2023-03-10T07:55:58.992Z,58.94
2023-03-10T07:56:59.002Z,58.94
2023-03-10T07:57:58.951Z,58.94
2023-03-10T07:58:58.978Z,58.94
2023-03-10T07:59:58.940Z,58.94
2023-03-10T08:00:58.968Z,58.94
2023-03-10T08:01:58.930Z,58.84
2023-03-10T08:02:58.910Z,58.84
2023-03-10T08:03:59.014Z,58.84
2023-03-10T08:04:58.993Z,58.94
2023-03-10T08:05:58.872Z,58.94
2023-03-10T08:06:58.888Z,58.92
2023-03-10T08:07:58.856Z,58.92
2023-03-10T08:08:58.842Z,58.92
2023-03-10T08:09:58.818Z,58.92
2023-03-10T08:10:58.817Z,58.92
2023-03-10T08:11:58.809Z,58.92
2023-03-10T08:12:58.804Z,58.81
2023-03-10T08:13:58.822Z,58.81
2023-03-10T08:14:58.898Z,58.81
2023-03-10T08:15:58.771Z,58.81
2023-03-10T08:16:58.771Z,58.92
2023-03-10T08:17:58.773Z,58.92
2023-03-10T08:18:58.739Z,58.92
2023-03-10T08:19:58.744Z,58.92
2023-03-10T08:20:58.746Z,58.92
2023-03-10T08:21:58.781Z,58.92
2023-03-10T08:22:58.724Z,58.81
2023-03-10T08:23:58.747Z,58.81
2023-03-10T08:24:58.677Z,58.81
2023-03-10T08:25:58.681Z,58.81
2023-03-10T08:26:58.673Z,58.81
2023-03-10T08:27:58.885Z,58.81
2023-03-10T08:28:58.638Z,58.81
2023-03-10T08:29:58.596Z,58.71
2023-03-10T08:31:04.653Z,58.81
2023-03-10T08:31:59.648Z,58.81
2023-03-10T08:32:58.731Z,58.81
2023-03-10T08:33:58.565Z,58.81
2023-03-10T08:34:58.605Z,58.81
2023-03-10T08:35:58.608Z,58.81
2023-03-10T08:36:58.560Z,58.81
2023-03-10T08:37:58.794Z,58.92
2023-03-10T08:38:58.697Z,58.94
2023-03-10T08:39:58.737Z,58.92
2023-03-10T08:40:59.214Z,58.94
2023-03-10T08:41:58.511Z,58.94
2023-03-10T08:42:58.577Z,59.05
2023-03-10T08:43:58.471Z,59.05
2023-03-10T08:44:59.234Z,59.05
2023-03-10T08:45:58.445Z,59.05
2023-03-10T08:46:58.503Z,59.05
2023-03-10T08:47:58.567Z,59.05
2023-03-10T08:48:58.399Z,59.05
2023-03-10T08:49:58.414Z,59.05
2023-03-10T08:50:58.384Z,59.05
2023-03-10T08:51:59.485Z,59.05
2023-03-10T08:52:58.359Z,59.05
2023-03-10T08:53:58.339Z,59.05
2023-03-10T08:54:59.895Z,59.05
2023-03-10T08:55:58.352Z,59.05
2023-03-10T08:56:58.386Z,59.05
2023-03-10T08:57:58.314Z,59.05
2023-03-10T08:58:58.394Z,59.14
2023-03-10T08:59:58.289Z,59.05
2023-03-10T09:00:58.266Z,59.05
2023-03-10T09:01:58.419Z,59.05
2023-03-10T09:02:58.351Z,59.05
2023-03-10T09:03:58.982Z,59.14
2023-03-10T09:04:58.238Z,59.14
2023-03-10T09:05:58.221Z,59.14
2023-03-10T09:06:58.216Z,59.14
2023-03-10T09:07:59.794Z,59.12
2023-03-10T09:08:58.199Z,59.12
2023-03-10T09:09:58.274Z,59.12
2023-03-10T09:10:58.185Z,59.12
2023-03-10T09:11:58.180Z,59.12
2023-03-10T09:13:12.758Z,59.12
2023-03-10T09:13:59.350Z,59.12
2023-03-10T09:14:58.295Z,59.12
2023-03-10T09:15:58.168Z,59.12
2023-03-10T09:16:58.228Z,59.22
2023-03-10T09:17:58.109Z,59.12
2023-03-10T09:18:58.088Z,59.22
2023-03-10T09:19:58.065Z,59.12
2023-03-10T09:20:58.087Z,59.12
2023-03-10T09:21:58.064Z,59.09
2023-03-10T09:22:58.058Z,59.09
2023-03-10T09:23:58.053Z,59.09
2023-03-10T09:25:00.588Z,58.99
2023-03-10T09:25:57.992Z,58.99
2023-03-10T09:26:57.995Z,58.99
2023-03-10T09:27:57.976Z,58.99
2023-03-10T09:28:58.079Z,58.89
2023-03-10T09:29:59.656Z,58.89
2023-03-10T09:30:57.957Z,58.89
2023-03-10T09:31:57.968Z,58.89
2023-03-10T09:32:57.982Z,58.89
2023-03-10T09:33:57.933Z,58.89
2023-03-10T09:34:57.999Z,58.89
2023-03-10T09:36:06.439Z,58.89
2023-03-10T09:36:58.886Z,58.89
2023-03-10T09:37:57.953Z,58.89
2023-03-10T09:38:57.871Z,58.89
2023-03-10T09:39:57.918Z,58.99
2023-03-10T09:40:57.856Z,58.99
2023-03-10T09:41:57.837Z,58.99
2023-03-10T09:42:57.825Z,58.99
2023-03-10T09:43:57.828Z,58.99
2023-03-10T09:44:57.842Z,58.99
2023-03-10T09:45:57.832Z,59.09
2023-03-10T09:46:57.790Z,59.09
2023-03-10T09:47:57.765Z,59.09
2023-03-10T09:48:57.753Z,59.09
2023-03-10T09:49:57.747Z,59.09
2023-03-10T09:50:57.758Z,59.09
2023-03-10T09:51:58.250Z,59.09
2023-03-10T09:52:57.783Z,59.19
2023-03-10T09:53:57.705Z,59.29
2023-03-10T09:54:57.696Z,59.29
2023-03-10T09:55:57.675Z,59.29
2023-03-10T09:56:57.676Z,59.29
2023-03-10T09:57:57.741Z,59.39
2023-03-10T09:58:57.662Z,59.39
2023-03-10T09:59:57.647Z,59.39
2023-03-10T10:00:57.643Z,59.39
2023-03-10T10:01:57.611Z,59.42
2023-03-10T10:02:57.749Z,59.42
2023-03-10T10:03:57.638Z,59.42
2023-03-10T10:04:57.639Z,59.42
2023-03-10T10:05:57.727Z,59.39
2023-03-10T10:06:57.562Z,59.42
2023-03-10T10:07:57.559Z,59.42
2023-03-10T10:09:04.230Z,59.42
2023-03-10T10:09:58.528Z,59.52
2023-03-10T10:10:57.515Z,59.52
2023-03-10T10:11:57.534Z,59.52
2023-03-10T10:12:57.494Z,59.52
2023-03-10T10:13:57.477Z,59.52
2023-03-10T10:14:57.890Z,59.52
2023-03-10T10:16:18.217Z,59.52
2023-03-10T10:16:58.489Z,59.52
2023-03-10T10:18:08.256Z,59.52
2023-03-10T10:18:58.459Z,59.52
2023-03-10T10:19:57.397Z,59.52
2023-03-10T10:20:57.410Z,59.63
2023-03-10T10:21:57.377Z,59.52
2023-03-10T10:22:57.378Z,59.63
2023-03-10T10:23:57.377Z,59.52
2023-03-10T10:24:57.354Z,59.63
2023-03-10T10:25:57.358Z,59.63
2023-03-10T10:26:57.487Z,59.63
2023-03-10T10:27:57.350Z,59.63
2023-03-10T10:28:57.352Z,59.63
2023-03-10T10:29:57.338Z,59.63
2023-03-10T10:30:57.345Z,59.63
2023-03-10T10:31:57.277Z,59.63
2023-03-10T10:32:57.302Z,59.63
2023-03-10T10:33:57.284Z,59.63
2023-03-10T10:34:57.266Z,59.63
2023-03-10T10:35:57.272Z,59.63
2023-03-10T10:36:57.289Z,59.63
2023-03-10T10:37:57.231Z,59.72
2023-03-10T10:38:57.228Z,59.72
2023-03-10T10:39:57.217Z,59.72
2023-03-10T10:40:57.221Z,59.72
2023-03-10T10:41:57.187Z,59.59
2023-03-10T10:42:57.170Z,59.59
2023-03-10T10:43:57.189Z,59.70
2023-03-10T10:44:57.532Z,59.70
2023-03-10T10:45:57.213Z,59.59
2023-03-10T10:46:57.130Z,59.80
2023-03-10T10:47:57.120Z,59.80
2023-03-10T10:48:57.109Z,59.70
2023-03-10T10:49:57.101Z,59.59
2023-03-10T10:50:57.097Z,59.70
2023-03-10T10:51:57.081Z,59.70
2023-03-10T10:52:57.062Z,59.70
2023-03-10T10:53:57.047Z,59.70
2023-03-10T10:54:57.064Z,59.70
2023-03-10T10:55:57.033Z,59.70
2023-03-10T10:56:57.050Z,59.90
2023-03-10T10:57:58.114Z,60.10
2023-03-10T10:58:56.990Z,59.80
2023-03-10T10:59:56.985Z,59.90
2023-03-10T11:00:57.000Z,60.00
2023-03-10T11:01:56.979Z,59.80
2023-03-10T11:02:57.047Z,60.00
2023-03-10T11:03:56.936Z,59.80
2023-03-10T11:04:56.935Z,60.00
2023-03-10T11:05:56.909Z,59.90
2023-03-10T11:06:56.899Z,59.80
2023-03-10T11:07:56.919Z,60.00
2023-03-10T11:08:56.904Z,59.80
2023-03-10T11:09:56.890Z,59.70
2023-03-10T11:10:56.864Z,59.80
2023-03-10T11:11:56.873Z,59.70
2023-03-10T11:12:56.845Z,59.80
2023-03-10T11:13:56.881Z,59.80
2023-03-10T11:14:57.832Z,59.80
2023-03-10T11:15:56.877Z,59.90
2023-03-10T11:16:56.804Z,59.80
2023-03-10T11:17:56.778Z,60.10
2023-03-10T11:18:56.853Z,59.90
2023-03-10T11:19:56.763Z,59.90
2023-03-10T11:20:56.757Z,59.90
2023-03-10T11:21:56.746Z,59.90
2023-03-10T11:22:57.006Z,59.92
2023-03-10T11:23:56.719Z,59.83
2023-03-10T11:24:56.704Z,59.92
2023-03-10T11:25:56.742Z,59.92
2023-03-10T11:26:56.697Z,60.03
2023-03-10T11:27:56.685Z,59.92
2023-03-10T11:28:56.646Z,60.03
2023-03-10T11:29:56.645Z,59.92
2023-03-10T11:30:56.644Z,60.03
2023-03-10T11:31:56.647Z,59.92
2023-03-10T11:32:56.634Z,60.03
2023-03-10T11:33:56.624Z,59.92
2023-03-10T11:34:56.602Z,60.03
2023-03-10T11:35:58.115Z,60.13
2023-03-10T11:36:57.378Z,60.23
2023-03-10T11:37:56.569Z,60.43
2023-03-10T11:38:56.591Z,60.33
2023-03-10T11:39:56.663Z,60.23
2023-03-10T11:40:56.515Z,60.03
2023-03-10T11:41:56.534Z,60.03
2023-03-10T11:42:56.550Z,59.92
2023-03-10T11:43:56.503Z,59.92
2023-03-10T11:44:56.482Z,59.92
2023-03-10T11:45:56.550Z,59.92
2023-03-10T11:46:56.473Z,59.92
2023-03-10T11:47:56.480Z,60.03
2023-03-10T11:48:56.455Z,60.13
2023-03-10T11:49:56.446Z,60.03
2023-03-10T11:50:56.436Z,60.03
2023-03-10T11:51:56.438Z,60.00
2023-03-10T11:52:56.392Z,60.00
2023-03-10T11:53:56.399Z,59.90
2023-03-10T11:54:56.400Z,59.90
2023-03-10T11:55:56.364Z,59.90
2023-03-10T11:56:56.357Z,59.80
2023-03-10T11:57:56.342Z,59.80
2023-03-10T11:58:56.324Z,59.80
2023-03-10T11:59:56.336Z,59.90
2023-03-10T12:00:56.315Z,59.90
2023-03-10T12:01:56.304Z,59.90
2023-03-10T12:02:56.296Z,60.10
2023-03-10T12:03:56.495Z,59.90
2023-03-10T12:04:56.276Z,60.00
2023-03-10T12:05:56.366Z,60.00
2023-03-10T12:06:56.246Z,59.90
2023-03-10T12:07:56.239Z,60.00
2023-03-10T12:08:56.209Z,60.00
2023-03-10T12:09:56.217Z,60.00
2023-03-10T12:10:56.186Z,60.10
2023-03-10T12:11:56.206Z,60.00
2023-03-10T12:12:56.185Z,59.80
2023-03-10T12:13:56.164Z,59.80
2023-03-10T12:14:56.307Z,60.00
2023-03-10T12:15:56.173Z,60.20
2023-03-10T12:16:56.142Z,60.00
2023-03-10T12:17:56.122Z,60.10
2023-03-10T12:18:56.112Z,60.30
2023-03-10T12:19:56.112Z,60.00
2023-03-10T12:20:56.095Z,59.90
2023-03-10T12:21:56.080Z,60.00
2023-03-10T12:22:56.075Z,60.00
2023-03-10T12:23:56.075Z,59.90
2023-03-10T12:24:56.046Z,60.00
2023-03-10T12:25:56.060Z,60.00
2023-03-10T12:26:56.023Z,60.00
2023-03-10T12:27:56.020Z,60.20
2023-03-10T12:28:56.002Z,60.20
2023-03-10T12:29:56.002Z,60.20
2023-03-10T12:30:55.989Z,60.20
2023-03-10T12:31:56.018Z,60.10
2023-03-10T12:32:56.021Z,60.20
2023-03-10T12:33:55.951Z,60.00
2023-03-10T12:34:55.961Z,60.00
2023-03-10T12:35:55.976Z,60.00
2023-03-10T12:36:55.917Z,60.13
2023-03-10T12:37:55.908Z,60.20
2023-03-10T12:38:55.906Z,60.30
2023-03-10T12:39:55.868Z,60.33
2023-03-10T12:40:55.879Z,60.33
2023-03-10T12:41:55.932Z,60.43
2023-03-10T12:42:55.859Z,60.43
2023-03-10T12:43:55.841Z,60.33
2023-03-10T12:44:55.813Z,60.23
2023-03-10T12:45:55.825Z,60.13
2023-03-10T12:46:55.837Z,60.13
2023-03-10T12:47:55.819Z,60.13
2023-03-10T12:48:55.763Z,60.23
2023-03-10T12:49:55.775Z,60.23
2023-03-10T12:50:55.756Z,60.23
2023-03-10T12:51:55.806Z,60.43